Date,TemperatureHighF,TemperatureAvgF,TemperatureLowF,DewpointHighF,DewpointAvgF,DewpointLowF,HumidityHigh,HumidityAvg,HumidityLow,PressureMaxIn,PressureMinIn,WindSpeedMaxMPH,WindSpeedAvgMPH,GustSpeedMaxMPH,PrecipitationSumIn
2013-2-1,41,34,24,30,19,7,73,54,33,30.37,29.81,12,2,0,0.00
2013-2-2,39,30,21,24,15,10,71,54,41,30.40,30.00,10,2,0,0.00
2013-2-3,40,36,32,31,28,22,89,73,53,30.00,29.84,6,0,0,0.00
2013-2-4,42,35,28,32,23,16,81,62,51,30.15,29.95,10,2,0,0.00
2013-2-5,50,45,42,39,34,29,84,67,58,29.96,29.85,13,3,0,0.00
2013-2-6,49,41,32,39,34,30,96,78,62,30.36,29.93,5,1,0,0.00
2013-2-7,44,40,32,42,34,28,95,79,71,30.44,30.16,4,1,0,0.20
2013-2-8,47,43,41,45,41,30,97,91,64,30.16,29.68,7,2,0,1.54
2013-2-9,45,38,33,29,25,21,69,59,46,30.39,29.91,15,3,0,0.00
2013-2-10,43,36,28,39,26,20,86,69,51,30.52,30.32,6,1,0,0.00
2013-2-11,60,54,43,57,51,39,97,90,76,30.30,29.80,18,7,0,0.06
2013-2-12,61,52,44,50,38,31,80,60,33,30.02,29.82,5,1,0,0.00
2013-2-13,49,46,41,44,42,38,96,86,71,29.95,29.61,4,0,0,0.09
2013-2-14,48,41,37,39,36,34,95,83,62,30.08,29.76,4,1,0,0.00
2013-2-15,57,46,37,45,39,35,94,79,60,30.09,29.93,6,2,0,0.00
2013-2-16,43,37,33,38,35,30,95,90,81,30.00,29.79,7,0,0,0.33
2013-2-17,36,31,26,29,17,8,81,56,33,30.23,29.79,6,2,0,0.04
2013-2-18,43,33,21,31,18,8,76,54,31,30.42,30.23,7,1,0,0.03
2013-2-19,55,46,39,50,40,27,95,78,59,30.26,29.78,17,6,0,0.07
2013-2-20,47,39,31,41,28,19,91,65,43,30.16,29.87,5,1,0,0.00
2013-2-21,44,34,26,24,20,15,67,56,42,30.32,30.14,5,1,0,0.00
2013-2-22,39,36,32,37,29,21,95,79,61,30.38,30.17,4,0,0,0.06
2013-2-23,45,42,39,45,41,37,98,97,95,30.19,29.80,6,0,0,0.39
2013-2-24,56,45,36,47,41,25,98,86,62,30.09,29.76,5,1,0,0.00
2013-2-25,44,36,31,32,28,23,88,72,57,30.23,30.09,5,1,0,0.00
2013-2-26,54,43,32,53,41,30,98,92,84,30.21,29.55,13,2,0,0.94
2013-2-27,58,50,41,52,45,38,98,84,60,29.71,29.53,10,2,0,0.51
2013-2-28,48,43,41,41,37,30,94,78,63,29.75,29.63,8,1,0,0.00